Terminal Aerodrome Forecast
Issued by NWS Chicago, IL

Home | Current Version | Previous Version | Graphics & Text | Print | Product List | Glossary On
Versions: 1 2 3 4 5 6 7 8 9 10 11 12 13 14 15 16 17 18 19 20 21 22 23
462
FTUS43 KLOT 181721
TAFRFD
TAF
KRFD 181721Z 1818/1918 07006KT P6SM BKN250
     FM190600 VRB03KT P6SM VCSH BKN060 OVC100
      TEMPO 1907/1911 4SM -SHRA BR OVC030
     FM191100 VRB03KT 6SM BR VCSH SCT020 BKN035
     FM191500 12006KT P6SM BKN045=

USA.gov is the U.S. government's official web portal to all federal, state and local government web resources and services.